Time;durP1;ratioP1;P1;durP2;ratioP2;P2;SDS_P1;SDS_P2;PMS_P1;PMS_P2;Temp;Humidity;BMP_temperature;BMP_pressure;BME280_temperature;BME280_humidity;BME280_pressure;Samples;Min_cycle;Max_cycle;Signal;HPM_P1;HPM_P2
2023/05/02 00:01:49;;;;;;;29.13;17.88;;;13.60;96.70;;;;;;4959359;28;20179;-76
2023/05/02 00:04:15;;;;;;;29.27;18.00;;;13.60;96.90;;;;;;4967014;28;20038;-77
2023/05/02 00:06:41;;;;;;;30.65;18.75;;;13.60;96.70;;;;;;4969466;28;20019;-75
2023/05/02 00:09:07;;;;;;;27.38;17.40;;;13.50;96.70;;;;;;4959115;28;20016;-76
2023/05/02 00:11:33;;;;;;;27.88;17.02;;;13.50;96.70;;;;;;4954731;28;20081;-78
2023/05/02 00:13:58;;;;;;;26.80;15.75;;;13.40;96.70;;;;;;4959783;28;20027;-78
2023/05/02 00:16:24;;;;;;;26.85;15.30;;;13.40;97.00;;;;;;4973318;28;20037;-79
2023/05/02 00:18:49;;;;;;;24.10;13.70;;;13.30;97.10;;;;;;4958791;28;20155;-76
2023/05/02 00:21:15;;;;;;;21.80;12.02;;;13.40;96.70;;;;;;4969865;28;20023;-77
2023/05/02 00:23:41;;;;;;;17.35;11.88;;;13.30;96.70;;;;;;4959643;28;20129;-76
2023/05/02 00:26:09;;;;;;;16.77;11.20;;;13.20;96.80;;;;;;4961973;28;20746;-78
2023/05/02 00:28:36;;;;;;;22.35;13.65;;;13.20;96.70;;;;;;4954208;28;20110;-78
2023/05/02 00:31:03;;;;;;;24.05;13.55;;;13.20;96.70;;;;;;4971499;28;20023;-77
2023/05/02 00:33:29;;;;;;;18.05;10.35;;;13.20;96.70;;;;;;4960368;28;20074;-77
2023/05/02 00:35:54;;;;;;;19.40;11.45;;;13.20;96.60;;;;;;4948952;29;20023;-77
2023/05/02 00:38:20;;;;;;;15.25;9.73;;;13.20;96.70;;;;;;4953970;28;20026;-78
2023/05/02 00:40:48;;;;;;;18.52;10.65;;;13.10;96.60;;;;;;4965160;28;20058;-77
2023/05/02 00:43:15;;;;;;;19.25;12.13;;;13.20;96.70;;;;;;4960822;28;20030;-77
2023/05/02 00:45:45;;;;;;;22.85;14.20;;;13.10;96.60;;;;;;4943077;29;20541;-77
2023/05/02 00:48:12;;;;;;;18.23;10.05;;;13.10;96.70;;;;;;4939630;28;20031;-76
2023/05/02 00:50:40;;;;;;;22.58;13.88;;;13.10;96.70;;;;;;4967035;28;20034;-77
2023/05/02 00:53:07;;;;;;;22.75;13.40;;;13.10;96.70;;;;;;4953399;28;20035;-76
2023/05/02 00:55:33;;;;;;;21.08;11.77;;;13.10;96.80;;;;;;4965307;28;20027;-77
2023/05/02 00:58:00;;;;;;;15.13;9.20;;;13.10;96.70;;;;;;4961433;28;20030;-77
2023/05/02 01:00:36;;;;;;;14.50;8.43;;;13.20;96.60;;;;;;4971632;28;20385;-77
2023/05/02 01:03:26;;;;;;;18.70;8.02;;;13.30;96.70;;;;;;4966197;28;20105;-77
2023/05/02 01:06:02;;;;;;;;;;;13.30;96.60;;;;;;4961804;28;20105;-75
2023/05/02 01:08:39;;;;;;;20.02;12.35;;;13.20;96.70;;;;;;4959266;28;19950;-77
2023/05/02 01:11:14;;;;;;;25.42;14.35;;;13.30;96.60;;;;;;4959733;28;20019;-76
2023/05/02 01:13:42;;;;;;;23.67;14.18;;;13.30;96.80;;;;;;4966253;28;20512;-77
2023/05/02 01:16:10;;;;;;;12.38;6.00;;;13.30;96.70;;;;;;4953710;28;20015;-78
2023/05/02 01:18:39;;;;;;;22.40;13.57;;;13.30;96.80;;;;;;4959223;28;20034;-76
2023/05/02 01:21:10;;;;;;;24.38;15.00;;;13.30;96.80;;;;;;4955903;28;20031;-76
2023/05/02 01:24:01;;;;;;;24.70;14.93;;;13.30;96.80;;;;;;4971599;28;20073;-76
2023/05/02 01:27:31;;;;;;;23.98;13.30;;;13.30;97.00;;;;;;4960402;28;20046;-76
2023/05/02 01:30:00;;;;;;;25.00;15.18;;;13.30;96.90;;;;;;4863885;29;20029;-76
2023/05/02 01:32:27;;;;;;;25.10;15.23;;;13.20;97.20;;;;;;4951248;28;20069;-76
2023/05/02 01:34:55;;;;;;;27.13;15.68;;;13.20;97.50;;;;;;4960831;28;20455;-75
2023/05/02 01:37:22;;;;;;;22.70;14.23;;;13.20;97.70;;;;;;4959498;28;20038;-76
2023/05/02 01:39:49;;;;;;;22.42;14.60;;;13.20;97.60;;;;;;4971470;28;20023;-76
2023/05/02 01:42:17;;;;;;;21.73;11.75;;;13.10;98.00;;;;;;4963269;28;20101;-76
2023/05/02 01:44:45;;;;;;;22.52;15.80;;;13.10;98.20;;;;;;4971398;28;20027;-76
2023/05/02 01:47:12;;;;;;;32.83;16.63;;;13.10;98.30;;;;;;4958280;28;20022;-76
2023/05/02 01:49:39;;;;;;;25.45;15.25;;;13.20;98.40;;;;;;4971810;28;20393;-76
2023/05/02 01:52:10;;;;;;;23.50;16.25;;;13.10;98.40;;;;;;4958232;28;20576;-76
2023/05/02 01:54:38;;;;;;;19.67;11.70;;;13.20;98.50;;;;;;4954789;28;20050;-76
2023/05/02 01:57:06;;;;;;;27.90;15.80;;;13.20;98.50;;;;;;4940856;28;20018;-76
2023/05/02 01:59:33;;;;;;;19.60;13.07;;;13.20;98.60;;;;;;4967206;28;20038;-76
2023/05/02 02:02:01;;;;;;;20.92;13.40;;;13.20;98.80;;;;;;4956460;28;20241;-76
2023/05/02 02:04:28;;;;;;;17.35;10.32;;;13.10;98.80;;;;;;4963066;28;20030;-76
2023/05/02 02:07:07;;;;;;;23.00;10.60;;;13.20;98.80;;;;;;4964180;28;20106;-76
2023/05/02 02:09:34;;;;;;;18.77;10.33;;;13.10;98.90;;;;;;4965853;28;20022;-75
2023/05/02 02:12:44;;;;;;;21.40;9.35;;;13.10;99.00;;;;;;4951399;28;20028;-76
2023/05/02 02:15:18;;;;;;;22.25;11.88;;;13.10;99.00;;;;;;4888834;29;20040;-76
2023/05/02 02:18:17;;;;;;;18.15;9.77;;;13.10;99.10;;;;;;4961095;28;20049;-77
2023/05/02 02:20:44;;;;;;;17.77;8.48;;;13.10;99.30;;;;;;4962395;28;20022;-77
2023/05/02 02:23:12;;;;;;;16.25;8.43;;;13.10;99.20;;;;;;4969229;28;20023;-75
2023/05/02 02:25:38;;;;;;;11.57;4.97;;;13.20;99.30;;;;;;4964811;28;20402;-76
2023/05/02 02:28:04;;;;;;;20.35;6.90;;;13.20;98.80;;;;;;4965621;28;20566;-77
2023/05/02 02:30:30;;;;;;;16.35;6.55;;;13.10;98.80;;;;;;4967277;28;20468;-77
2023/05/02 02:32:55;;;;;;;19.83;6.70;;;13.10;98.60;;;;;;4969899;28;20121;-75
2023/05/02 02:35:22;;;;;;;13.15;4.97;;;13.00;98.80;;;;;;4959411;28;20057;-77
2023/05/02 02:37:57;;;;;;;16.30;7.07;;;13.00;98.70;;;;;;4951550;28;20023;-77
2023/05/02 02:40:29;;;;;;;13.75;5.40;;;13.00;98.60;;;;;;4964891;28;20036;-77
2023/05/02 02:43:11;;;;;;;16.05;5.45;;;13.00;98.60;;;;;;4951616;28;20078;-76
2023/05/02 02:46:03;;;;;;;11.10;4.15;;;13.00;98.40;;;;;;4968778;28;20022;-77
2023/05/02 02:49:10;;;;;;;10.25;3.03;;;12.90;98.50;;;;;;4952987;28;20034;-76
2023/05/02 02:51:45;;;;;;;11.07;4.32;;;12.80;98.50;;;;;;4964593;28;20034;-78
2023/05/02 02:54:39;;;;;;;8.52;3.55;;;12.80;98.30;;;;;;4957445;28;20041;-76
2023/05/02 02:57:11;;;;;;;11.57;4.10;;;12.70;98.50;;;;;;4946365;28;20330;-77
2023/05/02 02:59:44;;;;;;;8.80;3.83;;;12.60;98.30;;;;;;4970354;28;20054;-76
2023/05/02 03:02:14;;;;;;;13.60;4.13;;;12.60;98.20;;;;;;4965560;28;20027;-76
2023/05/02 03:04:44;;;;;;;12.18;3.28;;;12.60;98.20;;;;;;4971111;28;20489;-75
2023/05/02 03:07:10;;;;;;;14.27;4.28;;;12.60;98.50;;;;;;4961696;28;20023;-76
2023/05/02 03:09:43;;;;;;;14.85;4.78;;;12.60;98.20;;;;;;4955939;28;20027;-76
2023/05/02 03:12:09;;;;;;;8.45;3.17;;;12.50;98.00;;;;;;4970409;28;20029;-77
2023/05/02 03:14:36;;;;;;;14.27;4.60;;;12.50;97.90;;;;;;4969923;28;20039;-76
2023/05/02 03:17:02;;;;;;;10.25;3.65;;;12.50;98.00;;;;;;4961885;28;20035;-76
2023/05/02 03:19:28;;;;;;;19.70;4.07;;;12.50;97.80;;;;;;4955749;28;20034;-78
2023/05/02 03:21:54;;;;;;;13.27;3.83;;;12.40;97.50;;;;;;4966556;28;20106;-75
2023/05/02 03:24:20;;;;;;;11.80;3.50;;;12.50;98.20;;;;;;4966403;28;20027;-76
2023/05/02 03:26:46;;;;;;;11.57;3.65;;;12.50;98.00;;;;;;4959295;28;20032;-77
2023/05/02 03:29:13;;;;;;;14.93;3.45;;;12.40;97.50;;;;;;4964326;28;20437;-77
2023/05/02 03:31:38;;;;;;;11.70;3.90;;;12.30;97.40;;;;;;4967733;28;20027;-76
2023/05/02 03:34:04;;;;;;;14.98;3.40;;;12.30;97.30;;;;;;4964687;28;20106;-75
2023/05/02 03:36:30;;;;;;;13.13;3.35;;;12.30;97.30;;;;;;4971913;28;20065;-76
2023/05/02 03:38:56;;;;;;;14.05;2.72;;;12.30;97.30;;;;;;4970570;28;20085;-78
2023/05/02 03:41:21;;;;;;;13.52;3.47;;;12.30;97.20;;;;;;4966520;28;20019;-76
2023/05/02 03:43:47;;;;;;;8.60;2.58;;;12.30;97.00;;;;;;4972594;28;20034;-77
2023/05/02 03:46:12;;;;;;;11.57;2.97;;;12.20;97.00;;;;;;4973184;28;20065;-77
2023/05/02 03:48:38;;;;;;;7.07;2.40;;;12.20;97.70;;;;;;4973989;28;20034;-77
2023/05/02 03:51:07;;;;;;;9.93;3.00;;;12.20;97.10;;;;;;4974336;28;20105;-77
2023/05/02 03:53:32;;;;;;;9.35;2.92;;;12.10;97.00;;;;;;4964632;28;20632;-78
2023/05/02 03:55:58;;;;;;;10.25;2.53;;;12.10;97.00;;;;;;4966938;28;20086;-77
2023/05/02 03:58:24;;;;;;;10.27;2.80;;;12.10;97.00;;;;;;4970479;28;20169;-75
2023/05/02 04:00:52;;;;;;;8.32;2.63;;;12.20;97.10;;;;;;4964021;28;20771;-75
2023/05/02 04:03:18;;;;;;;15.43;3.38;;;12.10;97.00;;;;;;4967505;28;20039;-77
2023/05/02 04:05:44;;;;;;;14.63;3.42;;;12.20;96.80;;;;;;4954289;28;20031;-76
2023/05/02 04:08:10;;;;;;;9.18;2.40;;;12.20;96.90;;;;;;4952303;28;20121;-77
2023/05/02 04:10:36;;;;;;;12.55;2.72;;;12.30;97.10;;;;;;4971357;28;20023;-77
2023/05/02 04:13:02;;;;;;;11.68;2.60;;;12.20;96.60;;;;;;4969588;28;20028;-77
2023/05/02 04:15:29;;;;;;;8.40;3.00;;;12.20;96.40;;;;;;4964059;28;20035;-77
2023/05/02 04:17:56;;;;;;;10.20;3.40;;;12.20;96.50;;;;;;4947825;28;20485;-76
2023/05/02 04:20:22;;;;;;;6.25;1.98;;;12.20;96.70;;;;;;4967477;28;20030;-76
2023/05/02 04:22:49;;;;;;;17.35;4.07;;;12.10;96.70;;;;;;4971553;28;20089;-78
2023/05/02 04:25:14;;;;;;;12.70;2.70;;;12.10;96.70;;;;;;4962452;28;20027;-76
2023/05/02 04:27:40;;;;;;;7.30;2.25;;;12.10;96.60;;;;;;4961203;28;20026;-76
2023/05/02 04:30:06;;;;;;;9.32;2.60;;;12.10;96.60;;;;;;4971874;28;20119;-76
2023/05/02 04:32:32;;;;;;;8.65;2.33;;;12.10;96.50;;;;;;4970010;28;20023;-76
2023/05/02 04:34:58;;;;;;;13.43;3.08;;;12.10;96.50;;;;;;4966957;28;20031;-77
2023/05/02 04:37:24;;;;;;;6.82;2.20;;;12.10;96.60;;;;;;4968651;28;20027;-78
2023/05/02 04:39:50;;;;;;;12.45;2.97;;;12.10;96.60;;;;;;4962499;28;20554;-76
2023/05/02 04:42:16;;;;;;;11.13;2.90;;;12.10;96.70;;;;;;4970608;28;20141;-76
2023/05/02 04:44:41;;;;;;;9.20;2.10;;;12.10;96.30;;;;;;4955630;28;20365;-75
2023/05/02 04:47:07;;;;;;;9.02;2.22;;;12.20;96.20;;;;;;4970879;28;20457;-76
2023/05/02 04:49:33;;;;;;;8.60;2.88;;;12.10;95.50;;;;;;4968517;28;20030;-76
2023/05/02 04:51:58;;;;;;;8.07;2.00;;;12.10;95.20;;;;;;4960956;28;20055;-76
2023/05/02 04:54:24;;;;;;;11.35;3.25;;;12.10;94.80;;;;;;4968146;28;20047;-76
2023/05/02 04:56:49;;;;;;;7.88;2.20;;;12.20;94.70;;;;;;4964765;28;20050;-76
2023/05/02 04:59:15;;;;;;;10.10;2.33;;;12.20;95.10;;;;;;4947614;28;20090;-76
2023/05/02 05:01:41;;;;;;;7.53;2.30;;;12.30;96.00;;;;;;4970002;28;20034;-75
2023/05/02 05:04:07;;;;;;;16.85;3.08;;;12.30;95.20;;;;;;4966405;28;20027;-77
2023/05/02 05:06:32;;;;;;;8.80;2.30;;;12.30;95.70;;;;;;4962920;28;20437;-75
2023/05/02 05:08:58;;;;;;;7.97;2.05;;;12.30;95.80;;;;;;4961634;28;20033;-75
2023/05/02 05:11:25;;;;;;;11.27;2.80;;;12.30;95.90;;;;;;4972325;28;20074;-76
2023/05/02 05:13:50;;;;;;;11.50;2.35;;;12.20;95.80;;;;;;4946126;28;20382;-76
2023/05/02 05:16:16;;;;;;;10.50;2.72;;;12.20;95.00;;;;;;4954283;28;20114;-77
2023/05/02 05:18:42;;;;;;;14.63;2.88;;;12.10;94.10;;;;;;4959874;28;20442;-77
2023/05/02 05:21:08;;;;;;;10.30;2.30;;;12.20;97.10;;;;;;4968426;28;20057;-78
2023/05/02 05:23:35;;;;;;;12.20;3.03;;;12.20;96.80;;;;;;4969619;28;20038;-76
2023/05/02 05:26:10;;;;;;;10.60;2.72;;;12.10;96.30;;;;;;4970603;28;20105;-77
2023/05/02 05:28:36;;;;;;;8.38;2.28;;;12.10;96.10;;;;;;4954222;28;20034;-78
2023/05/02 05:31:06;;;;;;;14.32;2.88;;;12.20;96.60;;;;;;4970169;28;20027;-75
2023/05/02 05:33:32;;;;;;;14.68;3.25;;;12.20;96.60;;;;;;4954818;28;20058;-75
2023/05/02 05:36:05;;;;;;;8.63;2.90;;;12.10;94.70;;;;;;4968796;28;20397;-76
2023/05/02 05:38:31;;;;;;;11.40;3.28;;;12.20;96.50;;;;;;4952890;28;20051;-77
2023/05/02 05:40:56;;;;;;;17.35;2.67;;;12.20;96.70;;;;;;4963075;28;20465;-77
2023/05/02 05:43:22;;;;;;;11.40;2.72;;;12.20;97.00;;;;;;4958537;28;20041;-77
2023/05/02 05:45:50;;;;;;;10.10;2.63;;;12.20;94.40;;;;;;4968602;28;20042;-77
2023/05/02 05:48:16;;;;;;;12.60;3.58;;;12.10;93.80;;;;;;4966590;28;20045;-78
2023/05/02 05:50:41;;;;;;;10.48;2.70;;;12.10;93.20;;;;;;4963766;28;20540;-78
2023/05/02 05:53:07;;;;;;;10.95;3.22;;;12.10;93.80;;;;;;4955111;28;20027;-77
2023/05/02 05:55:32;;;;;;;11.23;2.92;;;12.20;94.40;;;;;;4972082;28;20082;-77
2023/05/02 05:57:58;;;;;;;9.75;2.70;;;12.10;94.00;;;;;;4951091;28;20054;-75
2023/05/02 06:00:24;;;;;;;10.68;2.72;;;12.10;94.20;;;;;;4966806;28;20651;-76
2023/05/02 06:02:49;;;;;;;11.32;2.80;;;12.20;95.30;;;;;;4952236;28;20057;-78
2023/05/02 06:05:16;;;;;;;12.55;4.15;;;12.10;92.80;;;;;;4948299;28;20397;-76
2023/05/02 06:07:42;;;;;;;15.50;3.20;;;12.20;93.40;;;;;;4961528;28;20058;-77
2023/05/02 06:10:08;;;;;;;11.48;3.15;;;12.10;92.00;;;;;;4960994;28;20050;-78
2023/05/02 06:12:34;;;;;;;12.63;2.78;;;12.20;93.30;;;;;;4945566;28;20389;-78
2023/05/02 06:15:00;;;;;;;12.57;3.47;;;12.30;93.90;;;;;;4961526;28;20025;-76
2023/05/02 06:17:26;;;;;;;8.63;2.90;;;12.20;94.40;;;;;;4965639;28;20030;-76
2023/05/02 06:19:51;;;;;;;14.32;4.35;;;12.20;91.80;;;;;;4957986;28;20027;-77
2023/05/02 06:22:17;;;;;;;11.63;2.97;;;12.20;91.90;;;;;;4965730;28;20030;-76
2023/05/02 06:24:42;;;;;;;9.10;3.42;;;12.30;93.80;;;;;;4964645;28;20042;-77
2023/05/02 06:27:08;;;;;;;8.68;2.53;;;12.30;95.00;;;;;;4963880;28;20028;-77
2023/05/02 06:29:34;;;;;;;14.85;3.55;;;12.30;93.30;;;;;;4956614;28;20023;-76
2023/05/02 06:31:59;;;;;;;15.15;3.90;;;12.40;93.50;;;;;;4969663;28;20019;-75
2023/05/02 06:34:25;;;;;;;10.20;2.70;;;12.30;92.00;;;;;;4959734;28;20062;-77
2023/05/02 06:36:57;;;;;;;15.60;3.80;;;12.40;94.30;;;;;;4940873;28;20038;-75
2023/05/02 06:39:23;;;;;;;15.57;3.65;;;12.40;92.30;;;;;;4971236;28;20081;-76
2023/05/02 06:41:49;;;;;;;10.45;3.05;;;12.40;91.90;;;;;;4941490;28;20027;-77
2023/05/02 06:44:17;;;;;;;11.77;3.22;;;12.40;92.50;;;;;;4963000;28;20481;-76
2023/05/02 06:46:42;;;;;;;12.82;4.35;;;12.40;93.10;;;;;;4965055;28;20038;-76
2023/05/02 06:49:08;;;;;;;19.23;4.07;;;12.40;91.80;;;;;;4970405;28;20019;-78
2023/05/02 06:51:33;;;;;;;14.13;3.50;;;12.50;93.60;;;;;;4967329;28;20122;-79
2023/05/02 06:53:59;;;;;;;8.75;2.30;;;12.50;93.20;;;;;;4974668;28;20063;-78
2023/05/02 06:56:25;;;;;;;13.05;2.92;;;12.50;90.70;;;;;;4970797;28;20122;-78
2023/05/02 06:58:51;;;;;;;11.30;3.20;;;12.70;92.20;;;;;;4972820;28;20027;-77
2023/05/02 07:01:17;;;;;;;13.15;2.80;;;12.70;92.10;;;;;;4968446;28;20019;-78
2023/05/02 07:03:43;;;;;;;11.20;3.20;;;12.80;94.60;;;;;;4962935;28;20019;-76
2023/05/02 07:06:08;;;;;;;11.70;3.20;;;12.80;90.70;;;;;;4965945;28;20155;-78
2023/05/02 07:08:34;;;;;;;8.80;2.38;;;12.80;90.40;;;;;;4959628;28;20043;-76
2023/05/02 07:11:03;;;;;;;10.35;2.85;;;12.90;91.40;;;;;;4964061;28;20050;-80
2023/05/02 07:13:29;;;;;;;9.02;1.77;;;;;;;;;;4969011;28;20063;-82
2023/05/02 07:15:55;;;;;;;9.25;2.38;;;12.90;91.90;;;;;;4943669;28;20533;-82
2023/05/02 07:18:21;;;;;;;9.23;2.63;;;12.90;92.20;;;;;;4968114;28;20031;-79
2023/05/02 07:20:47;;;;;;;8.70;2.67;;;12.90;91.60;;;;;;4960196;28;20589;-83
2023/05/02 07:23:12;;;;;;;13.13;2.70;;;13.00;92.00;;;;;;4966633;28;20049;-80
2023/05/02 07:25:38;;;;;;;8.77;2.58;;;13.10;92.20;;;;;;4966589;28;20023;-83
2023/05/02 07:28:05;;;;;;;10.65;2.78;;;13.00;91.00;;;;;;4965172;28;20030;-81
2023/05/02 07:30:30;;;;;;;14.25;3.28;;;13.20;92.50;;;;;;4968296;28;20110;-78
2023/05/02 07:32:56;;;;;;;11.80;3.15;;;13.20;92.10;;;;;;4958510;28;20134;-78
2023/05/02 07:35:21;;;;;;;9.50;2.95;;;13.20;91.20;;;;;;4958869;28;20043;-78
2023/05/02 07:37:47;;;;;;;12.52;2.70;;;13.20;90.10;;;;;;4957034;28;20034;-79
2023/05/02 07:40:13;;;;;;;11.13;2.47;;;13.30;91.30;;;;;;4967393;28;20197;-76
2023/05/02 07:42:40;;;;;;;9.07;2.17;;;13.40;92.10;;;;;;4971149;28;20035;-79
2023/05/02 07:45:07;;;;;;;7.95;2.47;;;13.50;93.60;;;;;;4965739;28;20477;-77
2023/05/02 07:47:33;;;;;;;6.88;2.30;;;13.50;87.40;;;;;;4943557;28;20066;-80
2023/05/02 07:50:00;;;;;;;11.95;2.47;;;13.50;91.80;;;;;;4964321;28;20055;-82
2023/05/02 07:52:29;;;;;;;9.10;2.50;;;13.40;82.20;;;;;;4962145;28;20038;-83
2023/05/02 07:54:55;;;;;;;6.25;2.00;;;13.50;82.30;;;;;;4950519;28;20030;-83
2023/05/02 07:57:21;;;;;;;11.90;2.95;;;13.60;85.70;;;;;;4949796;28;20029;-81
2023/05/02 07:59:46;;;;;;;14.88;2.85;;;13.60;85.70;;;;;;4965034;28;20065;-80
2023/05/02 08:02:12;;;;;;;11.05;2.60;;;13.50;85.40;;;;;;4960905;28;20031;-78
2023/05/02 08:04:39;;;;;;;11.73;3.13;;;13.50;86.50;;;;;;4966126;28;20055;-79
2023/05/02 08:07:04;;;;;;;10.15;3.35;;;13.50;90.80;;;;;;4962767;28;20046;-79
2023/05/02 08:09:30;;;;;;;6.00;2.00;;;13.30;90.70;;;;;;4970254;28;20026;-79
2023/05/02 08:11:56;;;;;;;12.63;2.95;;;13.30;91.90;;;;;;4964103;28;20110;-76
2023/05/02 08:14:22;;;;;;;7.40;2.10;;;13.20;90.90;;;;;;4969567;28;20412;-78
2023/05/02 08:16:47;;;;;;;13.48;2.90;;;13.20;93.00;;;;;;4966510;28;20106;-77
2023/05/02 08:19:14;;;;;;;11.73;2.63;;;13.20;91.80;;;;;;4947008;28;20504;-76
2023/05/02 08:21:40;;;;;;;9.50;2.25;;;13.00;89.30;;;;;;4957451;28;20038;-78
2023/05/02 08:24:05;;;;;;;10.00;2.53;;;13.00;91.40;;;;;;4961215;28;20015;-80
2023/05/02 08:26:31;;;;;;;7.50;2.03;;;13.20;93.80;;;;;;4964541;28;20027;-78
2023/05/02 08:28:57;;;;;;;11.90;2.92;;;13.10;90.20;;;;;;4953618;28;20470;-78
2023/05/02 08:31:22;;;;;;;9.38;2.10;;;13.10;82.80;;;;;;4965354;28;20034;-79
2023/05/02 08:33:48;;;;;;;6.75;2.20;;;13.30;91.60;;;;;;4957976;28;20081;-79
2023/05/02 08:36:15;;;;;;;6.60;1.77;;;13.50;92.40;;;;;;4961458;28;20500;-80
2023/05/02 08:38:42;;;;;;;10.30;1.98;;;13.50;92.30;;;;;;4973751;28;20037;-83
2023/05/02 08:41:12;;;;;;;6.75;2.17;;;13.70;92.80;;;;;;4952670;28;20022;-78
2023/05/02 08:43:39;;;;;;;7.07;1.67;;;13.60;90.10;;;;;;4970243;28;20071;-79
2023/05/02 08:46:09;;;;;;;5.75;1.73;;;13.60;85.80;;;;;;4967179;28;20023;-82
2023/05/02 08:48:36;;;;;;;14.40;2.00;;;13.90;91.70;;;;;;4967562;28;20470;-76
2023/05/02 08:51:03;;;;;;;4.22;1.60;;;14.10;88.80;;;;;;4967453;28;20032;-77
2023/05/02 08:53:33;;;;;;;4.05;1.42;;;14.30;80.90;;;;;;4961582;28;20094;-80
2023/05/02 08:55:59;;;;;;;5.70;2.40;;;14.50;74.00;;;;;;4963129;28;20106;-80
2023/05/02 08:58:24;;;;;;;6.63;1.92;;;14.80;82.80;;;;;;4963153;28;20023;-79
2023/05/02 09:00:52;;;;;;;6.30;2.08;;;15.10;81.40;;;;;;4968061;28;20294;-79
2023/05/02 09:03:33;;;;;;;9.13;1.50;;;15.10;88.50;;;;;;4972910;28;20492;-78
2023/05/02 09:06:15;;;;;;;6.78;1.67;;;15.00;81.40;;;;;;4964586;28;20059;-80
2023/05/02 09:08:43;;;;;;;5.25;1.73;;;14.90;76.60;;;;;;4957434;28;20030;-79
2023/05/02 09:11:10;;;;;;;8.20;1.80;;;14.90;72.60;;;;;;4960961;28;20045;-80
2023/05/02 09:13:40;;;;;;;6.55;2.00;;;15.00;76.40;;;;;;4969706;28;20123;-79
2023/05/02 09:16:06;;;;;;;8.77;2.13;;;15.00;88.20;;;;;;4976450;28;20031;-80
2023/05/02 09:18:41;;;;;;;5.75;1.70;;;14.90;82.10;;;;;;4948629;28;20031;-77
2023/05/02 09:21:09;;;;;;;4.88;1.40;;;14.80;82.50;;;;;;4953901;28;20027;-77
2023/05/02 09:23:56;;;;;;;5.47;1.35;;;14.90;78.10;;;;;;4969340;28;20496;-78
2023/05/02 09:26:26;;;;;;;6.88;1.80;;;15.00;84.80;;;;;;4968811;28;20019;-80
2023/05/02 09:28:55;;;;;;;;;;;15.00;72.70;;;;;;4969368;28;20050;-82
2023/05/02 09:31:29;;;;;;;8.10;1.70;;;15.10;74.20;;;;;;4967826;28;19906;-81
2023/05/02 09:33:55;;;;;;;6.97;1.95;;;15.00;78.20;;;;;;4962473;28;20063;-81
2023/05/02 09:36:23;;;;;;;6.65;2.25;;;15.00;86.30;;;;;;4968422;28;20031;-82
2023/05/02 09:38:50;;;;;;;8.88;2.53;;;14.90;73.30;;;;;;4968666;28;20086;-82
2023/05/02 09:41:20;;;;;;;7.60;2.10;;;15.00;78.20;;;;;;4971468;28;20058;-83
2023/05/02 09:43:56;;;;;;;8.52;2.22;;;15.30;72.70;;;;;;4971506;28;20027;-86
2023/05/02 09:46:22;;;;;;;8.07;1.70;;;15.60;75.20;;;;;;4966900;28;20027;-86
2023/05/02 09:48:55;;;;;;;6.15;1.98;;;15.80;66.70;;;;;;4967732;28;20045;-82
2023/05/02 09:51:22;;;;;;;7.88;2.10;;;16.00;69.50;;;;;;4969724;28;20101;-84
2023/05/02 09:53:50;;;;;;;3.90;1.40;;;15.90;62.10;;;;;;4968793;28;20043;-80
2023/05/02 09:56:16;;;;;;;7.57;1.75;;;15.80;73.60;;;;;;4970525;28;20066;-80
2023/05/02 09:58:44;;;;;;;6.72;1.75;;;15.90;82.60;;;;;;4960786;28;20033;-80
2023/05/02 10:01:17;;;;;;;8.88;2.08;;;15.70;64.40;;;;;;4969939;28;20426;-83
2023/05/02 10:03:46;;;;;;;6.15;1.77;;;15.90;68.40;;;;;;4958951;28;20041;-81
2023/05/02 10:06:12;;;;;;;8.85;1.98;;;16.10;63.10;;;;;;4961668;28;20031;-80
2023/05/02 10:08:38;;;;;;;5.85;1.40;;;16.30;59.60;;;;;;4955714;28;20022;-81
2023/05/02 10:11:07;;;;;;;6.25;1.73;;;16.80;63.70;;;;;;4964948;28;20106;-81
2023/05/02 10:13:36;;;;;;;4.32;1.27;;;17.20;75.00;;;;;;4971113;28;20902;-86
2023/05/02 10:16:03;;;;;;;4.30;1.60;;;17.10;68.30;;;;;;4980263;28;20102;-84
2023/05/02 10:18:47;;;;;;;5.22;1.60;;;17.00;76.10;;;;;;4975363;28;20126;-84
2023/05/02 10:21:18;;;;;;;6.70;1.70;;;16.90;59.90;;;;;;4966710;28;20069;-79
2023/05/02 10:23:44;;;;;;;5.10;1.42;;;16.80;58.40;;;;;;4958447;28;20024;-79
2023/05/02 10:26:13;;;;;;;9.38;2.45;;;16.90;77.50;;;;;;4960130;28;20498;-83
2023/05/02 10:28:40;;;;;;;6.87;2.07;;;17.00;62.40;;;;;;4956238;28;20182;-83
2023/05/02 10:31:09;;;;;;;7.93;2.22;;;16.80;64.60;;;;;;4972893;28;20015;-82
2023/05/02 10:33:36;;;;;;;6.35;1.65;;;16.70;61.30;;;;;;4967194;28;20050;-82
2023/05/02 10:36:03;;;;;;;5.85;1.48;;;16.90;64.50;;;;;;4969586;28;20421;-81
2023/05/02 10:38:29;;;;;;;6.95;2.00;;;17.30;66.80;;;;;;4963710;28;20027;-81
2023/05/02 10:41:07;;;;;;;7.57;1.50;;;17.60;59.50;;;;;;4965369;28;20060;-82
2023/05/02 10:43:35;;;;;;;8.50;2.08;;;17.90;56.80;;;;;;4968885;28;20042;-82
2023/05/02 10:46:02;;;;;;;4.35;1.45;;;17.70;57.00;;;;;;4967629;28;20027;-81
2023/05/02 10:48:28;;;;;;;7.00;2.03;;;18.00;73.60;;;;;;4971098;28;20022;-81
2023/05/02 10:50:54;;;;;;;12.45;2.30;;;18.20;76.50;;;;;;4968577;28;20042;-80
2023/05/02 10:53:24;;;;;;;6.20;1.42;;;18.10;69.90;;;;;;4953063;28;20035;-79
2023/05/02 10:56:25;;;;;;;7.05;1.73;;;17.90;69.30;;;;;;4963930;28;20030;-84
2023/05/02 10:58:52;;;;;;;6.28;1.65;;;17.80;62.30;;;;;;4852553;29;20480;-81
2023/05/02 11:01:31;;;;;;;6.50;1.75;;;18.00;66.40;;;;;;4949068;28;20035;-80
2023/05/02 11:04:03;;;;;;;3.13;1.30;;;18.30;62.70;;;;;;4960497;28;20027;-81
2023/05/02 11:06:34;;;;;;;5.70;1.70;;;18.60;64.10;;;;;;4957396;28;20051;-81
2023/05/02 11:09:19;;;;;;;8.77;2.40;;;18.80;55.70;;;;;;4976156;28;20081;-79
2023/05/02 11:11:45;;;;;;;7.72;1.90;;;19.10;51.20;;;;;;4948114;28;20050;-79
2023/05/02 11:14:37;;;;;;;6.45;1.83;;;19.30;57.20;;;;;;4964020;28;20058;-79
2023/05/02 11:17:03;;;;;;;8.23;2.47;;;19.10;73.40;;;;;;4965273;28;20034;-80
2023/05/02 11:19:55;;;;;;;6.35;2.60;;;19.00;62.40;;;;;;4967326;28;20042;-81
2023/05/02 11:22:22;;;;;;;6.43;2.10;;;18.70;63.10;;;;;;4971136;28;20094;-80
2023/05/02 11:24:49;;;;;;;10.50;2.08;;;18.60;59.20;;;;;;4974863;28;20042;-80
2023/05/02 11:27:30;;;;;;;8.20;1.80;;;18.70;64.50;;;;;;4973882;28;20027;-80
2023/05/02 11:30:09;;;;;;;7.57;2.13;;;18.90;64.40;;;;;;4956536;28;20051;-81
2023/05/02 11:32:44;;;;;;;9.77;2.10;;;19.10;52.90;;;;;;4972455;28;20078;-81
2023/05/02 11:35:25;;;;;;;6.70;1.75;;;19.30;60.80;;;;;;4966307;28;20035;-81
2023/05/02 11:38:07;;;;;;;7.63;2.03;;;19.50;56.20;;;;;;4970481;28;20026;-81
2023/05/02 11:40:33;;;;;;;7.20;1.60;;;19.50;53.10;;;;;;4962234;28;20038;-81
2023/05/02 11:42:59;;;;;;;6.90;2.50;;;19.50;57.60;;;;;;4968923;28;20554;-84
2023/05/02 11:45:35;;;;;;;7.53;1.98;;;19.30;50.20;;;;;;4972196;28;20035;-83
2023/05/02 11:48:06;;;;;;;9.55;3.17;;;19.20;64.90;;;;;;4966694;28;20023;-84
2023/05/02 11:50:33;;;;;;;4.50;1.75;;;19.10;52.50;;;;;;4951422;28;20023;-81
2023/05/02 11:52:59;;;;;;;8.07;2.05;;;19.40;72.40;;;;;;4961526;28;20035;-82
2023/05/02 11:55:26;;;;;;;6.05;1.95;;;19.50;60.20;;;;;;4967781;28;20708;-83
2023/05/02 11:57:51;;;;;;;10.20;2.38;;;19.40;59.70;;;;;;4975741;28;20027;-82
2023/05/02 12:00:17;;;;;;;7.82;2.45;;;19.40;51.10;;;;;;4971991;28;20037;-83
2023/05/02 12:02:46;;;;;;;8.38;1.92;;;19.50;52.70;;;;;;4961784;28;20026;-81
2023/05/02 12:05:13;;;;;;;10.32;2.50;;;19.70;50.90;;;;;;4970227;28;20094;-84
2023/05/02 12:07:47;;;;;;;10.80;3.40;;;19.80;51.30;;;;;;4955822;28;20464;-80
2023/05/02 12:10:14;;;;;;;9.27;2.65;;;19.70;72.30;;;;;;4952555;28;20600;-83
2023/05/02 12:12:43;;;;;;;10.13;2.78;;;19.70;64.60;;;;;;4958796;28;20022;-83
2023/05/02 12:15:10;;;;;;;7.55;2.85;;;19.60;52.20;;;;;;4966811;28;20509;-84
2023/05/02 12:17:39;;;;;;;5.32;2.00;;;19.60;47.30;;;;;;4962881;28;20061;-81
2023/05/02 12:20:07;;;;;;;9.63;3.10;;;19.80;56.70;;;;;;4962690;28;20031;-82
2023/05/02 12:22:33;;;;;;;5.43;1.67;;;19.90;54.20;;;;;;4946496;28;20374;-82
2023/05/02 12:24:59;;;;;;;7.03;1.73;;;20.00;74.50;;;;;;4971129;28;20058;-82
2023/05/02 12:27:26;;;;;;;7.97;2.20;;;20.10;70.00;;;;;;4967836;28;20027;-81
2023/05/02 12:29:52;;;;;;;9.48;2.75;;;20.20;67.60;;;;;;4976337;28;20015;-81
2023/05/02 12:32:29;;;;;;;7.95;2.25;;;20.40;56.30;;;;;;4977143;28;20559;-81
2023/05/02 12:34:55;;;;;;;6.20;3.08;;;20.50;73.20;;;;;;4968879;28;20046;-82
2023/05/02 12:37:25;;;;;;;7.35;2.55;;;20.30;49.00;;;;;;4962902;28;20023;-83
2023/05/02 12:39:52;;;;;;;9.98;2.28;;;20.30;52.80;;;;;;4951392;29;20470;-81
2023/05/02 12:42:19;;;;;;;9.65;3.03;;;20.20;58.20;;;;;;4965764;28;20034;-81
2023/05/02 12:44:47;;;;;;;6.45;2.03;;;20.20;64.30;;;;;;4962844;28;20116;-82
2023/05/02 12:47:14;;;;;;;8.02;2.72;;;20.20;57.90;;;;;;4960669;28;20035;-82
2023/05/02 12:49:56;;;;;;;8.30;2.60;;;20.40;67.60;;;;;;4972620;28;20023;-82